Time;durP1;ratioP1;P1;durP2;ratioP2;P2;SDS_P1;SDS_P2;PMS_P1;PMS_P2;Temp;Humidity;BMP_temperature;BMP_pressure;BME280_temperature;BME280_humidity;BME280_pressure;Samples;Min_cycle;Max_cycle;Signal;HPM_P1;HPM_P2
2024/03/01 00:02:06;;;;;;;26.85;18.30;;;;;;;6.83;100.00;97121.47;1225967;75;2912305;-64
2024/03/01 00:04:39;;;;;;;24.00;16.20;;;;;;;7.25;100.00;97124.06;1225594;75;2916527;-67
2024/03/01 00:07:12;;;;;;;17.00;12.95;;;;;;;7.41;100.00;97116.69;1226222;75;2914507;-62
2024/03/01 00:09:47;;;;;;;11.45;9.30;;;;;;;7.50;100.00;97121.28;1226129;75;2911000;-65
2024/03/01 00:12:20;;;;;;;11.30;9.15;;;;;;;7.49;100.00;97111.63;1225609;75;2922391;-64
2024/03/01 00:14:53;;;;;;;10.90;9.20;;;;;;;7.45;100.00;97114.50;1226155;75;2911716;-63
2024/03/01 00:17:26;;;;;;;9.70;7.80;;;;;;;7.53;100.00;97120.34;1226037;75;2913840;-65
2024/03/01 00:19:59;;;;;;;11.25;7.90;;;;;;;7.50;100.00;97115.84;1225137;75;2912490;-64
2024/03/01 00:22:32;;;;;;;8.20;7.20;;;;;;;7.56;100.00;97119.41;1225287;75;2920848;-65
2024/03/01 00:25:10;;;;;;;7.95;6.40;;;;;;;7.60;100.00;97119.97;1225910;75;2913414;-64
2024/03/01 00:27:43;;;;;;;7.15;5.90;;;;;;;7.61;100.00;97103.16;1226304;75;2915980;-63
2024/03/01 00:30:16;;;;;;;7.95;6.35;;;;;;;7.54;100.00;97111.72;1225717;75;2914118;-65
2024/03/01 00:32:49;;;;;;;8.50;6.65;;;;;;;7.45;100.00;97111.78;1224441;75;2918576;-64
2024/03/01 00:35:22;;;;;;;8.45;6.45;;;;;;;7.62;100.00;97106.63;1225855;75;2932769;-64
2024/03/01 00:37:56;;;;;;;9.70;6.50;;;;;;;7.64;100.00;97107.66;1226353;75;2915850;-63
2024/03/01 00:40:31;;;;;;;8.70;6.45;;;;;;;7.64;100.00;97106.94;1225678;75;2915332;-64
2024/03/01 00:43:04;;;;;;;6.85;5.75;;;;;;;7.61;100.00;97100.44;1225677;75;2911465;-65
2024/03/01 00:45:37;;;;;;;7.75;5.55;;;;;;;7.55;100.00;97102.34;1225994;75;2916748;-64
2024/03/01 00:48:13;;;;;;;7.50;5.90;;;;;;;7.51;100.00;97098.28;1225550;75;2922961;-61
2024/03/01 00:50:46;;;;;;;7.40;6.50;;;;;;;7.51;100.00;97098.28;1225005;75;2911302;-67
2024/03/01 00:53:18;;;;;;;7.95;6.45;;;;;;;7.43;100.00;97095.94;1226077;75;2918570;-63
2024/03/01 00:55:54;;;;;;;10.25;6.35;;;;;;;7.56;100.00;97090.19;1223603;75;2927816;-64
2024/03/01 00:58:27;;;;;;;9.10;6.95;;;;;;;7.46;100.00;97092.25;1226564;75;2918270;-63
2024/03/01 01:00:59;;;;;;;8.75;6.15;;;;;;;7.43;100.00;97090.50;1224956;75;2923888;-64
2024/03/01 01:03:32;;;;;;;10.00;7.00;;;;;;;7.43;100.00;97081.53;1225892;75;2912655;-63
2024/03/01 01:06:05;;;;;;;8.50;6.90;;;;;;;7.41;100.00;97084.75;1226217;75;2910336;-66
2024/03/01 01:08:38;;;;;;;8.25;6.40;;;;;;;7.42;100.00;97085.50;1225054;75;2921055;-63
2024/03/01 01:11:13;;;;;;;9.10;6.75;;;;;;;7.45;100.00;97085.28;1225290;75;2921065;-64
2024/03/01 01:13:46;;;;;;;8.90;6.65;;;;;;;7.41;100.00;97078.56;1225529;75;2920757;-65
2024/03/01 01:16:19;;;;;;;7.95;5.75;;;;;;;7.43;100.00;97067.94;1225278;75;2922792;-64
2024/03/01 01:18:52;;;;;;;8.15;6.00;;;;;;;7.43;100.00;97076.09;1225841;75;2909407;-66
2024/03/01 01:21:25;;;;;;;7.20;5.65;;;;;;;7.35;100.00;97070.28;1224523;75;2938797;-64
2024/03/01 01:23:58;;;;;;;7.10;5.50;;;;;;;7.33;100.00;97072.72;1225714;75;2923730;-63
2024/03/01 01:26:34;;;;;;;7.90;5.80;;;;;;;7.36;100.00;97062.84;1225639;75;2918478;-63
2024/03/01 01:29:07;;;;;;;8.70;5.55;;;;;;;7.35;100.00;97062.09;1225893;75;2913675;-64
2024/03/01 01:31:39;;;;;;;7.15;5.55;;;;;;;7.27;100.00;97054.78;1224363;75;2921413;-64
2024/03/01 01:34:12;;;;;;;7.95;5.75;;;;;;;7.27;100.00;97052.81;1225502;75;2913747;-64
2024/03/01 01:36:45;;;;;;;8.80;5.15;;;;;;;7.26;100.00;97051.28;1226048;75;2912032;-63
2024/03/01 01:39:18;;;;;;;5.70;4.85;;;;;;;7.25;100.00;97047.09;1225315;75;2912444;-63
2024/03/01 01:41:53;;;;;;;6.85;5.25;;;;;;;7.21;100.00;97043.78;1225195;75;2919257;-65
2024/03/01 01:44:26;;;;;;;6.95;5.40;;;;;;;7.15;100.00;97049.13;1225694;75;2917102;-65
2024/03/01 01:46:59;;;;;;;7.15;5.80;;;;;;;7.14;100.00;97044.16;1225606;75;2915652;-64
2024/03/01 01:49:33;;;;;;;7.15;5.70;;;;;;;7.15;100.00;97040.97;1225974;75;2914038;-64
2024/03/01 01:52:07;;;;;;;8.60;5.60;;;;;;;7.09;100.00;97039.34;1225464;75;2913025;-62
2024/03/01 01:54:41;;;;;;;7.80;6.05;;;;;;;7.11;100.00;97031.47;1226190;75;2915137;-64
2024/03/01 01:57:17;;;;;;;7.85;5.45;;;;;;;7.01;100.00;97041.69;1224488;75;2936820;-63
2024/03/01 01:59:52;;;;;;;8.30;5.60;;;;;;;6.99;100.00;97039.44;1225394;75;2919325;-62
2024/03/01 02:02:25;;;;;;;6.20;5.35;;;;;;;7.02;100.00;97041.25;1225022;75;2923237;-65
2024/03/01 02:04:59;;;;;;;7.35;6.05;;;;;;;7.02;100.00;97035.78;1224801;75;2923116;-63
2024/03/01 02:07:31;;;;;;;8.00;5.80;;;;;;;6.97;100.00;97043.84;1225475;75;2921285;-65
2024/03/01 02:10:09;;;;;;;8.20;5.85;;;;;;;6.89;100.00;97035.28;1224739;75;2919693;-64
2024/03/01 02:12:54;;;;;;;7.65;5.75;;;;;;;6.94;100.00;97033.91;1224119;75;2912639;-65
2024/03/01 02:15:28;;;;;;;8.50;6.30;;;;;;;6.90;100.00;97030.59;1224969;75;2917469;-63
2024/03/01 02:18:02;;;;;;;7.50;5.85;;;;;;;6.83;100.00;97028.97;1226100;75;2915250;-64
2024/03/01 02:20:36;;;;;;;8.05;6.50;;;;;;;6.81;100.00;97026.75;1225539;75;2911458;-65
2024/03/01 02:23:19;;;;;;;6.90;5.20;;;;;;;6.80;100.00;97019.03;1223512;75;2916760;-62
2024/03/01 02:25:52;;;;;;;6.80;5.40;;;;;;;6.83;100.00;97016.16;1225202;75;2923717;-65
2024/03/01 02:28:25;;;;;;;10.50;6.90;;;;;;;6.74;100.00;97005.34;1225293;75;2919178;-64
2024/03/01 02:30:58;;;;;;;9.25;7.00;;;;;;;6.66;100.00;97011.59;1223423;75;2915943;-63
2024/03/01 02:33:31;;;;;;;8.90;6.95;;;;;;;6.76;100.00;97010.31;1224324;75;2921469;-64
2024/03/01 02:36:03;;;;;;;8.50;6.85;;;;;;;6.67;100.00;96997.53;1223560;75;2959657;-63
2024/03/01 02:38:39;;;;;;;10.70;6.70;;;;;;;6.78;100.00;97002.41;1224807;75;2923985;-64
2024/03/01 02:41:12;;;;;;;7.75;6.10;;;;;;;6.81;100.00;97004.22;1224208;75;2921646;-63
2024/03/01 02:43:45;;;;;;;8.05;6.00;;;;;;;6.81;100.00;97002.25;1224656;75;2916469;-64
2024/03/01 02:46:17;;;;;;;7.85;6.30;;;;;;;6.87;100.00;97005.06;1224393;75;2917345;-64
2024/03/01 02:48:50;;;;;;;10.40;6.65;;;;;;;6.76;100.00;97007.59;1225328;75;2893568;-64
2024/03/01 02:51:23;;;;;;;9.75;7.60;;;;;;;6.79;100.00;96996.53;1222960;75;2927214;-64
2024/03/01 02:53:59;;;;;;;9.60;7.05;;;;;;;6.83;100.00;96999.81;1190367;75;5642786;-65
2024/03/01 02:56:32;;;;;;;8.90;7.00;;;;;;;6.92;100.00;97006.41;1224998;75;2903861;-62
2024/03/01 02:59:05;;;;;;;9.00;6.55;;;;;;;6.81;100.00;96996.06;1224097;75;2927922;-63
2024/03/01 03:01:38;;;;;;;16.40;11.65;;;;;;;6.79;100.00;97001.97;1222329;75;2922523;-63
2024/03/01 03:04:12;;;;;;;15.90;12.15;;;;;;;6.66;100.00;96987.09;1224440;75;2919692;-63
2024/03/01 03:06:45;;;;;;;22.35;17.40;;;;;;;6.39;100.00;96986.84;1224324;75;2916593;-64
2024/03/01 03:09:20;;;;;;;21.95;15.20;;;;;;;6.59;100.00;96988.22;1224446;75;2922014;-64
2024/03/01 03:11:53;;;;;;;15.95;12.35;;;;;;;6.86;100.00;96992.69;1224584;75;2924189;-64
2024/03/01 03:14:26;;;;;;;13.00;9.80;;;;;;;6.93;100.00;96997.03;1223866;75;2919395;-63
2024/03/01 03:16:58;;;;;;;10.10;8.35;;;;;;;6.98;100.00;96990.94;1224507;75;2918685;-64
2024/03/01 03:19:32;;;;;;;8.50;6.85;;;;;;;7.07;100.00;96993.56;1224850;75;2923238;-63
2024/03/01 03:22:08;;;;;;;8.85;6.65;;;;;;;7.12;100.00;96986.69;1225116;75;2912962;-63
2024/03/01 03:24:44;;;;;;;7.15;6.00;;;;;;;7.18;100.00;96987.56;1225268;75;2921952;-64
2024/03/01 03:27:17;;;;;;;6.90;5.60;;;;;;;7.14;100.00;96992.44;1224915;75;2924752;-63
2024/03/01 03:29:50;;;;;;;6.50;5.10;;;;;;;7.21;100.00;96975.72;1224576;75;2914632;-64
2024/03/01 03:32:22;;;;;;;6.20;5.20;;;;;;;7.25;100.00;96989.91;1224589;75;2924091;-66
2024/03/01 03:34:55;;;;;;;6.50;5.40;;;;;;;7.28;100.00;96980.06;1225030;75;2921518;-65
2024/03/01 03:37:28;;;;;;;6.25;5.05;;;;;;;7.29;100.00;96982.31;1224541;75;2921898;-65
2024/03/01 03:40:13;;;;;;;7.70;5.25;;;;;;;7.28;100.00;96980.78;1225732;75;2925686;-64
2024/03/01 03:42:46;;;;;;;5.85;4.60;;;;;;;7.36;100.00;96975.72;1224114;75;2914796;-65
2024/03/01 03:45:20;;;;;;;7.05;4.80;;;;;;;7.33;100.00;96979.38;1225060;75;2916434;-65
2024/03/01 03:47:52;;;;;;;6.50;5.20;;;;;;;7.37;100.00;96977.25;1225433;75;2917009;-64
2024/03/01 03:50:26;;;;;;;5.80;4.85;;;;;;;7.41;100.00;96983.25;1225195;75;2917941;-67
2024/03/01 03:52:59;;;;;;;6.30;4.80;;;;;;;7.42;100.00;96969.16;1224174;75;2921068;-63
2024/03/01 03:55:34;;;;;;;6.90;5.10;;;;;;;7.43;100.00;96965.22;1225199;75;2919914;-64
2024/03/01 03:58:07;;;;;;;6.80;4.90;;;;;;;7.45;100.00;96962.75;1223954;75;2949259;-63
2024/03/01 04:00:40;;;;;;;6.25;4.75;;;;;;;7.45;100.00;96967.44;1225482;75;2931539;-64
2024/03/01 04:03:13;;;;;;;7.00;5.05;;;;;;;7.47;100.00;96954.88;1225606;75;2915045;-64
2024/03/01 04:05:46;;;;;;;8.15;6.20;;;;;;;7.33;100.00;96957.59;1224645;75;2928972;-65
2024/03/01 04:08:18;;;;;;;7.70;5.40;;;;;;;7.46;100.00;96952.63;1224453;75;2914793;-66
2024/03/01 04:10:54;;;;;;;6.95;5.70;;;;;;;7.47;100.00;96959.56;1224875;75;2913780;-64
2024/03/01 04:13:27;;;;;;;8.85;6.20;;;;;;;7.49;100.00;96957.13;1225201;75;2919812;-65
2024/03/01 04:16:00;;;;;;;7.85;5.85;;;;;;;7.53;100.00;96957.69;1224911;75;2928743;-66
2024/03/01 04:18:32;;;;;;;12.00;9.10;;;;;;;7.23;100.00;96952.25;1225357;75;2915875;-64
2024/03/01 04:21:07;;;;;;;21.30;15.90;;;;;;;6.94;100.00;96947.56;1225509;75;2920833;-65
2024/03/01 04:23:40;;;;;;;27.40;19.70;;;;;;;6.85;100.00;96947.66;1225371;75;2914609;-65
2024/03/01 04:26:16;;;;;;;25.80;19.20;;;;;;;6.85;100.00;96936.78;1225344;75;2921988;-64
2024/03/01 04:28:49;;;;;;;28.05;18.85;;;;;;;6.88;100.00;96937.81;1224243;75;2916907;-66
2024/03/01 04:31:22;;;;;;;25.80;17.90;;;;;;;6.87;100.00;96931.63;1224712;75;2919210;-65
2024/03/01 04:33:56;;;;;;;26.90;19.45;;;;;;;6.88;100.00;96927.69;1225144;75;2914079;-64
2024/03/01 04:36:29;;;;;;;26.60;17.90;;;;;;;6.99;100.00;96927.88;1191124;75;5591656;-65
2024/03/01 04:39:03;;;;;;;32.95;18.60;;;;;;;6.98;100.00;96922.91;1224677;75;2914236;-63
2024/03/01 04:41:38;;;;;;;27.40;18.05;;;;;;;7.16;100.00;96927.41;1223502;75;2920508;-64
2024/03/01 04:44:11;;;;;;;21.85;17.05;;;;;;;7.20;100.00;96920.53;1224841;75;2920300;-65
2024/03/01 04:46:45;;;;;;;24.50;17.50;;;;;;;7.18;100.00;96914.06;1225182;75;2918688;-65
2024/03/01 04:49:17;;;;;;;25.35;18.85;;;;;;;7.08;100.00;96912.69;1224817;75;2916892;-63
2024/03/01 04:51:50;;;;;;;28.40;18.65;;;;;;;7.14;100.00;96910.78;1223208;75;2922068;-63
2024/03/01 04:54:23;;;;;;;22.60;17.80;;;;;;;7.18;100.00;96890.31;1222078;75;2957967;-64
2024/03/01 04:56:59;;;;;;;24.35;18.05;;;;;;;7.11;100.00;96896.13;1223599;75;2911398;-64
2024/03/01 04:59:33;;;;;;;25.70;17.05;;;;;;;7.26;100.00;96890.69;1223826;75;2920103;-64
2024/03/01 05:02:06;;;;;;;20.15;15.30;;;;;;;7.38;100.00;96891.59;1224152;75;2923572;-65
2024/03/01 05:04:38;;;;;;;16.55;12.65;;;;;;;7.57;100.00;96881.97;1221456;75;2934596;-64
2024/03/01 05:07:11;;;;;;;14.15;11.20;;;;;;;7.56;100.00;96874.28;1223286;75;2933199;-67
2024/03/01 05:09:45;;;;;;;16.95;12.95;;;;;;;7.50;100.00;96868.75;1224342;75;2926941;-64
2024/03/01 05:12:22;;;;;;;29.00;19.95;;;;;;;7.51;100.00;96853.91;1221101;75;2923003;-65
2024/03/01 05:14:56;;;;;;;30.15;21.20;;;;;;;7.60;100.00;96847.59;1223653;75;2939895;-63
2024/03/01 05:17:29;;;;;;;31.35;22.20;;;;;;;7.45;100.00;96842.94;1223635;75;2928374;-64
2024/03/01 05:20:02;;;;;;;33.85;22.45;;;;;;;7.42;100.00;96843.88;1223839;75;2924625;-66
2024/03/01 05:22:36;;;;;;;32.25;22.45;;;;;;;7.45;100.00;96842.19;1223649;75;2921714;-65
2024/03/01 05:25:17;;;;;;;32.80;21.70;;;;;;;7.49;100.00;96845.47;1222607;75;2921267;-65
2024/03/01 05:27:54;;;;;;;32.05;21.50;;;;;;;7.60;100.00;96851.06;1223963;75;2920785;-67
2024/03/01 05:30:27;;;;;;;27.95;21.45;;;;;;;7.85;100.00;96851.63;1224104;75;2916519;-64
2024/03/01 05:33:01;;;;;;;28.80;21.10;;;;;;;7.89;100.00;96847.47;1223593;75;2925316;-64
2024/03/01 05:35:34;;;;;;;24.80;19.25;;;;;;;7.96;100.00;96854.50;1223638;75;2925234;-65
2024/03/01 05:38:07;;;;;;;17.50;14.05;;;;;;;7.88;100.00;96853.41;1223556;75;2934191;-64
2024/03/01 05:40:40;;;;;;;20.95;14.95;;;;;;;7.78;100.00;96850.06;1223002;75;2919017;-64
2024/03/01 05:43:15;;;;;;;15.45;12.15;;;;;;;7.97;100.00;96850.53;1225052;75;2923976;-64
2024/03/01 05:45:48;;;;;;;13.30;9.80;;;;;;;8.06;100.00;96844.94;1223692;75;2922936;-64
2024/03/01 05:48:21;;;;;;;9.95;8.20;;;;;;;8.11;100.00;96846.25;1222895;75;2927737;-66
2024/03/01 05:50:58;;;;;;;9.05;7.25;;;;;;;8.10;100.00;96840.06;1223693;75;2920402;-66
2024/03/01 05:53:30;;;;;;;8.10;6.70;;;;;;;8.12;100.00;96842.28;1223983;75;2934057;-64
2024/03/01 05:56:03;;;;;;;9.30;6.90;;;;;;;7.99;100.00;96842.63;1223095;75;2934491;-63
2024/03/01 05:58:41;;;;;;;11.90;8.85;;;;;;;7.95;100.00;96833.91;1223210;75;2923289;-64
2024/03/01 06:01:16;;;;;;;10.70;9.00;;;;;;;8.05;100.00;96829.81;1224127;75;2925438;-65
2024/03/01 06:03:50;;;;;;;11.95;9.25;;;;;;;7.93;100.00;96841.06;1223627;75;2930636;-63
2024/03/01 06:06:23;;;;;;;19.05;13.05;;;;;;;7.83;100.00;96840.47;1224776;75;2920494;-64
2024/03/01 06:08:55;;;;;;;12.05;9.50;;;;;;;8.06;100.00;96849.66;1222438;75;2919014;-64
2024/03/01 06:11:28;;;;;;;8.85;7.30;;;;;;;8.10;100.00;96834.59;1222992;75;2924451;-63
2024/03/01 06:14:04;;;;;;;11.10;8.00;;;;;;;8.07;100.00;96835.53;1223968;75;2923856;-63
2024/03/01 06:16:36;;;;;;;13.55;8.40;;;;;;;8.13;100.00;96832.88;1223320;75;2931305;-64
2024/03/01 06:19:09;;;;;;;9.40;7.20;;;;;;;8.08;100.00;96839.78;1223724;75;2925094;-63
2024/03/01 06:21:42;;;;;;;11.45;8.40;;;;;;;8.03;100.00;96836.97;1222591;75;2918361;-64
2024/03/01 06:24:15;;;;;;;9.70;7.50;;;;;;;7.95;100.00;96833.16;1224630;75;2920979;-66
2024/03/01 06:26:49;;;;;;;10.30;7.25;;;;;;;7.90;100.00;96829.88;1223465;75;2927705;-65
2024/03/01 06:29:25;;;;;;;16.45;11.45;;;;;;;7.71;100.00;96842.28;1223856;75;2921836;-64
2024/03/01 06:31:58;;;;;;;22.55;15.80;;;;;;;7.54;100.00;96833.16;1222945;75;2930920;-63
2024/03/01 06:34:30;;;;;;;24.70;17.50;;;;;;;7.57;100.00;96834.94;1222121;75;2931640;-65
2024/03/01 06:37:03;;;;;;;25.15;17.85;;;;;;;7.43;100.00;96836.47;1224248;75;2918417;-65
2024/03/01 06:39:36;;;;;;;23.75;17.85;;;;;;;7.49;100.00;96834.56;1223203;75;2924835;-63
2024/03/01 06:42:09;;;;;;;25.30;18.50;;;;;;;7.59;100.00;96838.66;1222611;75;2931719;-64
2024/03/01 06:44:47;;;;;;;18.55;14.40;;;;;;;7.76;100.00;96843.59;1224672;75;2924131;-64
2024/03/01 06:47:20;;;;;;;;;;;;;;;7.93;100.00;96843.78;1224303;75;2922012;-63
2024/03/01 06:53:13;;;;;;;12.75;9.95;;;;;;;8.05;100.00;96851.63;1220276;75;2916537;-63
2024/03/01 06:55:46;;;;;;;14.20;11.45;;;;;;;7.96;100.00;96854.50;1224136;75;2914361;-64
2024/03/01 06:58:19;;;;;;;13.15;9.95;;;;;;;8.13;100.00;96849.25;1223101;75;2918638;-66
2024/03/01 07:00:54;;;;;;;13.40;9.75;;;;;;;8.08;100.00;96845.22;1223177;75;2925017;-63
2024/03/01 07:03:27;;;;;;;14.35;11.30;;;;;;;8.13;100.00;96848.47;1222980;75;2924553;-64
2024/03/01 07:06:03;;;;;;;15.25;10.75;;;;;;;8.12;100.00;96858.63;1224042;75;2928026;-61
2024/03/01 07:08:35;;;;;;;15.60;11.15;;;;;;;7.99;100.00;96852.78;1224734;75;2924739;-67
2024/03/01 07:11:08;;;;;;;18.80;13.50;;;;;;;7.96;100.00;96851.78;1223335;75;2921475;-64
2024/03/01 07:13:41;;;;;;;21.75;15.90;;;;;;;7.83;100.00;96849.38;1224913;75;2918596;-64
2024/03/01 07:16:17;;;;;;;17.50;13.45;;;;;;;8.01;100.00;96856.53;1224210;75;2924241;-62
2024/03/01 07:18:49;;;;;;;21.75;14.10;;;;;;;8.02;100.00;96852.56;1223001;75;2926289;-66
2024/03/01 07:21:22;;;;;;;21.20;14.90;;;;;;;7.98;100.00;96859.47;1223819;75;2928300;-64
2024/03/01 07:23:57;;;;;;;18.90;13.60;;;;;;;8.07;100.00;96853.88;1224877;75;2925854;-62
2024/03/01 07:26:30;;;;;;;16.75;12.25;;;;;;;8.20;100.00;96854.28;1224468;75;2924187;-64
2024/03/01 07:29:03;;;;;;;17.75;13.75;;;;;;;8.03;100.00;96853.31;1224659;75;2913491;-65
2024/03/01 07:31:38;;;;;;;21.55;14.70;;;;;;;8.03;100.00;96848.63;1224645;75;2924803;-62
2024/03/01 07:34:12;;;;;;;19.50;14.35;;;;;;;8.13;100.00;96853.94;1224246;75;2928324;-65
2024/03/01 07:36:45;;;;;;;21.20;16.35;;;;;;;8.03;100.00;96853.31;1224587;75;2917468;-63
2024/03/01 07:39:17;;;;;;;23.70;16.55;;;;;;;8.08;100.00;96858.84;1224262;75;2925805;-63
2024/03/01 07:41:50;;;;;;;25.30;17.20;;;;;;;8.11;100.00;96854.41;1223297;75;2938600;-63
2024/03/01 07:44:26;;;;;;;20.25;14.70;;;;;;;8.31;100.00;96861.81;1223775;75;2926964;-64
2024/03/01 07:47:02;;;;;;;15.95;12.10;;;;;;;8.45;100.00;96873.91;1223719;75;2920997;-65
2024/03/01 07:49:36;;;;;;;12.65;9.45;;;;;;;8.55;100.00;96869.03;1224844;75;2961190;-64
2024/03/01 07:52:09;;;;;;;12.10;8.80;;;;;;;8.67;100.00;96870.63;1223145;75;2921052;-64
2024/03/01 07:54:42;;;;;;;11.75;9.05;;;;;;;8.66;100.00;96872.63;1224785;75;2919325;-65
2024/03/01 07:57:15;;;;;;;13.45;10.45;;;;;;;8.60;100.00;96873.78;1224880;75;2919286;-61
2024/03/01 07:59:48;;;;;;;17.20;10.90;;;;;;;8.53;100.00;96869.50;1224523;75;2928369;-62
2024/03/01 08:02:24;;;;;;;19.80;15.30;;;;;;;8.48;100.00;96873.69;1223420;75;2947370;-64
2024/03/01 08:04:57;;;;;;;16.35;12.75;;;;;;;8.70;100.00;96873.13;1223777;75;2925022;-62
2024/03/01 08:07:32;;;;;;;22.45;17.35;;;;;;;8.42;100.00;96869.38;1223189;75;2939580;-62
2024/03/01 08:10:08;;;;;;;29.65;20.15;;;;;;;8.33;100.00;96867.53;1224260;67;2926473;-64
2024/03/01 08:12:41;;;;;;;28.05;20.55;;;;;;;8.33;100.00;96859.38;1222740;75;2926583;-63
2024/03/01 08:15:28;;;;;;;31.15;22.60;;;;;;;8.28;100.00;96847.16;1224083;75;2923230;-64
2024/03/01 08:18:09;;;;;;;26.45;19.60;;;;;;;8.49;100.00;96847.13;1223564;75;2920429;-63
2024/03/01 08:21:03;;;;;;;23.05;16.75;;;;;;;8.61;100.00;96848.00;1223967;75;2928913;-64
2024/03/01 08:23:42;;;;;;;23.80;18.20;;;;;;;8.67;100.00;96851.53;1225021;75;2919003;-63
2024/03/01 08:26:28;;;;;;;23.15;17.45;;;;;;;8.77;100.00;96854.84;1224791;75;2920665;-62
2024/03/01 08:29:04;;;;;;;23.65;16.90;;;;;;;9.04;100.00;96857.06;1223341;75;2927313;-64
2024/03/01 08:31:38;;;;;;;27.05;18.95;;;;;;;8.69;100.00;96849.81;1222986;75;2912299;-64
2024/03/01 08:34:24;;;;;;;26.50;17.90;;;;;;;8.84;100.00;96851.69;1222972;75;2931083;-65
2024/03/01 08:36:57;;;;;;;20.85;16.20;;;;;;;8.78;100.00;96853.59;1223276;75;2932783;-64
2024/03/01 08:39:30;;;;;;;30.05;20.75;;;;;;;8.48;100.00;96857.31;1222549;67;2935246;-65
2024/03/01 08:42:07;;;;;;;31.20;21.10;;;;;;;8.55;100.00;96853.41;1222284;75;2933344;-64
2024/03/01 08:44:59;;;;;;;28.95;20.50;;;;;;;8.55;100.00;96863.59;1222374;75;2927485;-66
2024/03/01 08:47:34;;;;;;;24.65;17.65;;;;;;;8.78;100.00;96868.03;1223597;75;2934677;-64
2024/03/01 08:50:51;;;;;;;18.80;15.00;;;;;;;8.90;100.00;96863.41;1223441;75;2924814;-64
2024/03/01 08:54:03;;;;;;;16.65;13.25;;;;;;;8.90;100.00;96855.22;1223353;75;2943216;-66
2024/03/01 08:56:40;;;;;;;19.70;14.40;;;;;;;9.11;100.00;96856.59;1223903;75;2977330;-64
2024/03/01 08:59:46;;;;;;;16.15;12.15;;;;;;;9.18;100.00;96850.69;1223837;75;2921987;-63
2024/03/01 09:02:49;;;;;;;21.80;14.45;;;;;;;9.34;100.00;96859.50;1220285;75;3008244;-66
2024/03/01 09:05:25;;;;;;;27.15;17.40;;;;;;;9.13;100.00;96865.06;1221871;75;2935439;-63
2024/03/01 09:08:03;;;;;;;21.95;16.65;;;;;;;9.24;100.00;96858.94;1222444;75;2929340;-62
2024/03/01 09:10:42;;;;;;;24.00;18.10;;;;;;;9.14;100.00;96865.84;1224420;75;2922910;-64
2024/03/01 09:13:20;;;;;;;20.90;16.00;;;;;;;9.35;100.00;96864.47;1224099;75;2925709;-64
2024/03/01 09:15:53;;;;;;;21.10;16.70;;;;;;;9.35;100.00;96864.47;1223929;75;2921731;-66
2024/03/01 09:18:47;;;;;;;19.55;14.85;;;;;;;9.54;100.00;96861.38;1224070;75;2933690;-64
2024/03/01 09:21:46;;;;;;;23.80;18.15;;;;;;;9.23;100.00;96851.97;1222805;75;2928558;-61
2024/03/01 09:24:22;;;;;;;22.15;17.65;;;;;;;9.38;100.00;96846.38;1223953;75;2925777;-63
2024/03/01 09:26:58;;;;;;;23.95;17.70;;;;;;;9.61;100.00;96847.25;1224312;75;2924644;-63
2024/03/01 09:29:40;;;;;;;19.00;13.90;;;;;;;9.77;100.00;96852.06;1048778;75;20203046;-63
2024/03/01 09:32:13;;;;;;;15.50;12.10;;;;;;;9.93;100.00;96841.69;1222755;75;2919305;-65
2024/03/01 09:34:46;;;;;;;30.35;21.75;;;;;;;9.24;100.00;96845.28;1223857;75;2913821;-65
2024/03/01 09:37:23;;;;;;;24.85;19.50;;;;;;;9.46;100.00;96843.94;1222669;75;2927943;-63
2024/03/01 09:40:01;;;;;;;21.90;15.70;;;;;;;9.79;100.00;96846.84;1224822;75;2926537;-64
2024/03/01 09:42:47;;;;;;;16.60;13.20;;;;;;;9.89;100.00;96844.66;1223441;75;2924693;-65
2024/03/01 09:45:54;;;;;;;13.60;11.40;;;;;;;10.05;100.00;96845.22;1223616;75;2924971;-63
2024/03/01 09:48:49;;;;;;;12.30;9.60;;;;;;;10.13;100.00;96848.97;1223986;75;2922061;-64
2024/03/01 09:51:36;;;;;;;19.40;14.55;;;;;;;9.87;100.00;96847.13;1223810;75;2921343;-62
2024/03/01 09:54:27;;;;;;;16.75;12.90;;;;;;;10.01;100.00;96848.94;1223330;75;2924423;-64
2024/03/01 09:57:16;;;;;;;14.75;11.10;;;;;;;10.07;100.00;96843.47;1223881;75;2924126;-62
2024/03/01 09:59:55;;;;;;;15.20;11.90;;;;;;;10.11;100.00;96854.19;1222461;75;3005925;-62
2024/03/01 10:02:37;;;;;;;;;;;;;;;10.09;100.00;96849.19;1224883;75;2926129;-63
2024/03/01 10:05:37;;;;;;;12.25;9.40;;;;;;;10.20;100.00;96853.97;1223877;75;2926193;-64
2024/03/01 10:08:24;;;;;;;11.25;9.30;;;;;;;10.16;100.00;96851.47;1224141;75;2930843;-63
2024/03/01 10:11:25;;;;;;;13.05;9.15;;;;;;;10.20;100.00;96856.72;1222957;75;2925007;-63
2024/03/01 10:14:13;;;;;;;11.85;9.20;;;;;;;10.14;100.00;96853.19;1223634;75;2921403;-64
2024/03/01 10:17:00;;;;;;;10.50;9.10;;;;;;;10.20;100.00;96853.97;1224831;75;2927929;-64
2024/03/01 10:19:52;;;;;;;13.00;9.40;;;;;;;10.23;100.00;96853.00;1224287;75;2921684;-62
2024/03/01 10:22:39;;;;;;;11.45;8.70;;;;;;;10.25;100.00;96853.25;1222588;75;2927911;-62
2024/03/01 10:25:47;;;;;;;9.95;7.00;;;;;;;10.35;100.00;96867.47;1222608;75;2922895;-64
2024/03/01 10:28:41;;;;;;;9.40;7.35;;;;;;;10.28;100.00;96852.28;1223638;75;2924874;-65
2024/03/01 10:31:31;;;;;;;9.10;7.35;;;;;;;10.41;100.00;96854.53;1223577;75;2928992;-64
2024/03/01 10:34:10;;;;;;;8.70;7.00;;;;;;;10.41;100.00;96862.75;1223283;75;2929643;-64
2024/03/01 10:36:48;;;;;;;10.40;7.75;;;;;;;10.37;100.00;96849.31;1222837;75;2923317;-65
2024/03/01 10:39:27;;;;;;;11.50;8.30;;;;;;;10.27;100.00;96848.03;1223529;75;2923747;-64
2024/03/01 10:42:13;;;;;;;10.45;7.05;;;;;;;10.33;100.00;96851.53;1222195;75;2926123;-64
2024/03/01 10:44:55;;;;;;;11.60;9.30;;;;;;;10.36;100.00;96852.53;1223622;75;2928028;-66
2024/03/01 10:47:32;;;;;;;14.70;9.45;;;;;;;10.34;100.00;96852.28;1222734;75;2924585;-65
2024/03/01 10:50:22;;;;;;;12.40;9.70;;;;;;;10.33;100.00;96848.06;1222305;75;2920281;-64
2024/03/01 10:53:06;;;;;;;12.90;9.70;;;;;;;10.30;100.00;96843.59;1222510;75;2924004;-64
2024/03/01 10:55:41;;;;;;;11.95;9.80;;;;;;;10.23;100.00;96845.53;1223723;75;2921338;-63
2024/03/01 10:58:21;;;;;;;10.70;9.45;;;;;;;10.11;100.00;96837.78;1224071;75;2919668;-64
2024/03/01 11:01:00;;;;;;;11.75;10.05;;;;;;;10.32;100.00;96844.59;1223998;75;2919166;-64
2024/03/01 11:03:44;;;;;;;12.60;9.55;;;;;;;10.28;100.00;96835.88;1224391;75;2921588;-65
2024/03/01 11:06:30;;;;;;;10.85;9.25;;;;;;;10.35;100.00;96837.38;1224254;75;2924507;-64
2024/03/01 11:09:12;;;;;;;14.05;9.95;;;;;;;10.37;100.00;96841.13;1224524;75;2918108;-64
2024/03/01 11:11:58;;;;;;;14.80;10.95;;;;;;;10.29;100.00;96834.63;1223617;75;2925611;-65
2024/03/01 11:14:33;;;;;;;12.10;10.05;;;;;;;10.37;100.00;96838.38;1221944;75;2933186;-65
2024/03/01 11:17:08;;;;;;;10.80;9.60;;;;;;;10.44;100.00;96834.41;1224692;75;2931449;-64
2024/03/01 11:19:47;;;;;;;10.35;8.85;;;;;;;10.21;100.00;96837.06;1224298;75;2924339;-64
2024/03/01 11:22:28;;;;;;;18.70;14.25;;;;;;;10.02;100.00;96838.72;1223170;75;2931841;-65
2024/03/01 11:25:12;;;;;;;18.30;12.40;;;;;;;10.29;100.00;96842.06;1221898;75;2921989;-64
2024/03/01 11:27:54;;;;;;;19.65;13.05;;;;;;;10.18;100.00;96834.56;1224434;75;2928133;-67
2024/03/01 11:30:32;;;;;;;12.35;11.05;;;;;;;10.39;100.00;96830.44;1223701;75;2923013;-68
2024/03/01 11:33:06;;;;;;;15.70;12.50;;;;;;;10.12;100.00;96831.81;1223834;75;2923149;-68
2024/03/01 11:35:48;;;;;;;14.60;11.55;;;;;;;10.28;100.00;96824.16;1224374;75;2920085;-65
2024/03/01 11:38:35;;;;;;;14.05;12.00;;;;;;;10.31;100.00;96820.44;1224336;75;2923549;-65
2024/03/01 11:41:26;;;;;;;14.05;12.45;;;;;;;10.20;100.00;96821.16;1223914;75;2931718;-63
2024/03/01 11:44:25;;;;;;;15.30;12.20;;;;;;;10.35;100.00;96818.22;1223682;75;2928299;-64
2024/03/01 11:47:12;;;;;;;14.60;11.70;;;;;;;10.36;100.00;96817.72;1224480;75;2921692;-65
2024/03/01 11:50:07;;;;;;;16.45;13.35;;;;;;;10.35;100.00;96813.50;1223994;75;2924437;-65
2024/03/01 11:53:04;;;;;;;17.65;14.35;;;;;;;10.30;100.00;96806.03;1223020;75;2934532;-66
2024/03/01 11:56:00;;;;;;;22.70;18.30;;;;;;;10.27;100.00;96795.28;1223208;83;2936121;-65